sensor_id;sensor_type;location;lat;lon;timestamp;P1;durP1;ratioP1;P2;durP2;ratioP2
55114;SDS011;41010;53.252;5.786;2023-04-03T00:00:25;3.25;;;1.00;;
55114;SDS011;41010;53.252;5.786;2023-04-03T00:02:52;3.05;;;1.00;;
55114;SDS011;41010;53.252;5.786;2023-04-03T00:05:20;2.78;;;1.25;;
55114;SDS011;41010;53.252;5.786;2023-04-03T00:07:48;4.03;;;1.42;;
55114;SDS011;41010;53.252;5.786;2023-04-03T00:10:16;5.05;;;1.10;;
55114;SDS011;41010;53.252;5.786;2023-04-03T00:12:43;3.72;;;1.10;;
55114;SDS011;41010;53.252;5.786;2023-04-03T00:15:10;3.75;;;1.00;;
55114;SDS011;41010;53.252;5.786;2023-04-03T00:17:38;3.58;;;1.02;;
55114;SDS011;41010;53.252;5.786;2023-04-03T00:20:05;2.78;;;1.13;;
55114;SDS011;41010;53.252;5.786;2023-04-03T00:22:33;4.65;;;1.20;;
55114;SDS011;41010;53.252;5.786;2023-04-03T00:25:02;5.45;;;1.13;;
55114;SDS011;41010;53.252;5.786;2023-04-03T00:27:29;5.07;;;1.10;;
55114;SDS011;41010;53.252;5.786;2023-04-03T00:29:56;3.45;;;1.17;;
55114;SDS011;41010;53.252;5.786;2023-04-03T00:32:23;6.03;;;1.55;;
55114;SDS011;41010;53.252;5.786;2023-04-03T00:34:51;6.85;;;1.08;;
55114;SDS011;41010;53.252;5.786;2023-04-03T00:37:18;3.05;;;1.30;;
55114;SDS011;41010;53.252;5.786;2023-04-03T00:39:45;3.55;;;1.00;;
55114;SDS011;41010;53.252;5.786;2023-04-03T00:42:14;2.70;;;1.00;;
55114;SDS011;41010;53.252;5.786;2023-04-03T00:47:27;5.50;;;1.13;;
55114;SDS011;41010;53.252;5.786;2023-04-03T00:49:55;3.42;;;1.13;;
55114;SDS011;41010;53.252;5.786;2023-04-03T00:52:25;3.15;;;1.10;;
55114;SDS011;41010;53.252;5.786;2023-04-03T00:54:56;2.70;;;1.05;;
55114;SDS011;41010;53.252;5.786;2023-04-03T00:57:26;3.45;;;1.05;;
55114;SDS011;41010;53.252;5.786;2023-04-03T00:59:55;3.17;;;1.10;;
55114;SDS011;41010;53.252;5.786;2023-04-03T01:02:24;4.90;;;1.00;;
55114;SDS011;41010;53.252;5.786;2023-04-03T01:04:52;2.25;;;0.82;;
55114;SDS011;41010;53.252;5.786;2023-04-03T01:07:20;2.03;;;0.95;;
55114;SDS011;41010;53.252;5.786;2023-04-03T01:09:49;2.60;;;0.90;;
55114;SDS011;41010;53.252;5.786;2023-04-03T01:12:19;4.22;;;0.90;;
55114;SDS011;41010;53.252;5.786;2023-04-03T01:14:48;3.53;;;0.88;;
55114;SDS011;41010;53.252;5.786;2023-04-03T01:17:30;3.22;;;1.38;;
55114;SDS011;41010;53.252;5.786;2023-04-03T01:20:03;4.18;;;0.80;;
55114;SDS011;41010;53.252;5.786;2023-04-03T01:22:38;1.88;;;0.80;;
55114;SDS011;41010;53.252;5.786;2023-04-03T01:25:06;2.65;;;0.70;;
55114;SDS011;41010;53.252;5.786;2023-04-03T01:27:33;2.78;;;0.85;;
55114;SDS011;41010;53.252;5.786;2023-04-03T01:30:02;2.25;;;0.90;;
55114;SDS011;41010;53.252;5.786;2023-04-03T01:32:31;2.42;;;0.85;;
55114;SDS011;41010;53.252;5.786;2023-04-03T01:34:58;2.78;;;0.90;;
55114;SDS011;41010;53.252;5.786;2023-04-03T01:37:26;1.90;;;0.80;;
55114;SDS011;41010;53.252;5.786;2023-04-03T01:39:53;4.85;;;0.90;;
55114;SDS011;41010;53.252;5.786;2023-04-03T01:42:20;6.80;;;0.80;;
55114;SDS011;41010;53.252;5.786;2023-04-03T01:44:48;2.25;;;0.80;;
55114;SDS011;41010;53.252;5.786;2023-04-03T01:47:15;2.67;;;0.80;;
55114;SDS011;41010;53.252;5.786;2023-04-03T01:49:44;4.07;;;1.00;;
55114;SDS011;41010;53.252;5.786;2023-04-03T01:52:11;3.80;;;1.08;;
55114;SDS011;41010;53.252;5.786;2023-04-03T01:54:38;2.70;;;0.88;;
55114;SDS011;41010;53.252;5.786;2023-04-03T01:57:05;3.38;;;0.88;;
55114;SDS011;41010;53.252;5.786;2023-04-03T01:59:33;3.35;;;1.00;;
55114;SDS011;41010;53.252;5.786;2023-04-03T02:02:00;2.63;;;0.80;;
55114;SDS011;41010;53.252;5.786;2023-04-03T02:04:27;5.45;;;1.05;;
55114;SDS011;41010;53.252;5.786;2023-04-03T02:06:56;1.95;;;0.82;;
55114;SDS011;41010;53.252;5.786;2023-04-03T02:09:23;3.92;;;0.95;;
55114;SDS011;41010;53.252;5.786;2023-04-03T02:11:51;2.75;;;0.98;;
55114;SDS011;41010;53.252;5.786;2023-04-03T02:14:18;3.63;;;1.13;;
55114;SDS011;41010;53.252;5.786;2023-04-03T02:16:47;2.58;;;0.90;;
55114;SDS011;41010;53.252;5.786;2023-04-03T02:19:14;3.83;;;1.00;;
55114;SDS011;41010;53.252;5.786;2023-04-03T02:21:41;4.68;;;0.75;;
55114;SDS011;41010;53.252;5.786;2023-04-03T02:24:10;4.28;;;1.08;;
55114;SDS011;41010;53.252;5.786;2023-04-03T02:26:37;2.03;;;0.80;;
55114;SDS011;41010;53.252;5.786;2023-04-03T02:29:04;4.82;;;1.33;;
55114;SDS011;41010;53.252;5.786;2023-04-03T02:31:31;3.67;;;0.82;;
55114;SDS011;41010;53.252;5.786;2023-04-03T02:33:59;3.38;;;0.77;;
55114;SDS011;41010;53.252;5.786;2023-04-03T02:36:26;2.30;;;0.85;;
55114;SDS011;41010;53.252;5.786;2023-04-03T02:38:53;3.30;;;1.05;;
55114;SDS011;41010;53.252;5.786;2023-04-03T02:41:22;2.10;;;0.60;;
55114;SDS011;41010;53.252;5.786;2023-04-03T02:43:50;3.58;;;0.80;;
55114;SDS011;41010;53.252;5.786;2023-04-03T02:46:18;2.42;;;1.05;;
55114;SDS011;41010;53.252;5.786;2023-04-03T02:48:45;1.73;;;0.80;;
55114;SDS011;41010;53.252;5.786;2023-04-03T02:51:13;3.35;;;0.95;;
55114;SDS011;41010;53.252;5.786;2023-04-03T02:53:40;1.67;;;0.82;;
55114;SDS011;41010;53.252;5.786;2023-04-03T02:56:07;3.85;;;0.95;;
55114;SDS011;41010;53.252;5.786;2023-04-03T02:58:36;5.10;;;1.20;;
55114;SDS011;41010;53.252;5.786;2023-04-03T03:01:03;3.28;;;1.10;;
55114;SDS011;41010;53.252;5.786;2023-04-03T03:03:31;4.80;;;1.15;;
55114;SDS011;41010;53.252;5.786;2023-04-03T03:06:02;4.43;;;0.90;;
55114;SDS011;41010;53.252;5.786;2023-04-03T03:08:29;4.65;;;0.93;;
55114;SDS011;41010;53.252;5.786;2023-04-03T03:10:56;3.40;;;0.98;;
55114;SDS011;41010;53.252;5.786;2023-04-03T03:13:24;4.55;;;1.13;;
55114;SDS011;41010;53.252;5.786;2023-04-03T03:15:53;4.28;;;1.20;;
55114;SDS011;41010;53.252;5.786;2023-04-03T03:18:20;2.45;;;1.10;;
55114;SDS011;41010;53.252;5.786;2023-04-03T03:20:50;5.38;;;1.02;;
55114;SDS011;41010;53.252;5.786;2023-04-03T03:23:17;4.95;;;0.95;;
55114;SDS011;41010;53.252;5.786;2023-04-03T03:25:45;3.75;;;0.90;;
55114;SDS011;41010;53.252;5.786;2023-04-03T03:28:12;5.25;;;1.10;;
55114;SDS011;41010;53.252;5.786;2023-04-03T03:30:39;5.47;;;1.05;;
55114;SDS011;41010;53.252;5.786;2023-04-03T03:33:08;4.05;;;1.15;;
55114;SDS011;41010;53.252;5.786;2023-04-03T03:35:35;4.45;;;1.10;;
55114;SDS011;41010;53.252;5.786;2023-04-03T03:38:03;3.33;;;1.02;;
55114;SDS011;41010;53.252;5.786;2023-04-03T03:40:30;6.20;;;1.10;;
55114;SDS011;41010;53.252;5.786;2023-04-03T03:42:57;4.75;;;1.15;;
55114;SDS011;41010;53.252;5.786;2023-04-03T03:45:24;2.15;;;1.35;;
55114;SDS011;41010;53.252;5.786;2023-04-03T03:47:52;2.60;;;1.08;;
55114;SDS011;41010;53.252;5.786;2023-04-03T03:50:21;4.55;;;1.10;;
55114;SDS011;41010;53.252;5.786;2023-04-03T03:52:48;4.20;;;1.05;;
55114;SDS011;41010;53.252;5.786;2023-04-03T03:55:15;5.68;;;1.00;;
55114;SDS011;41010;53.252;5.786;2023-04-03T03:57:42;3.75;;;1.00;;
55114;SDS011;41010;53.252;5.786;2023-04-03T04:00:10;5.15;;;1.10;;
55114;SDS011;41010;53.252;5.786;2023-04-03T04:02:37;4.47;;;1.23;;
55114;SDS011;41010;53.252;5.786;2023-04-03T04:05:05;7.30;;;1.55;;
55114;SDS011;41010;53.252;5.786;2023-04-03T04:07:34;8.57;;;2.65;;
55114;SDS011;41010;53.252;5.786;2023-04-03T04:10:01;6.22;;;1.40;;
55114;SDS011;41010;53.252;5.786;2023-04-03T04:12:28;8.30;;;1.40;;
55114;SDS011;41010;53.252;5.786;2023-04-03T04:14:55;6.38;;;1.00;;
55114;SDS011;41010;53.252;5.786;2023-04-03T04:17:23;4.50;;;1.30;;
55114;SDS011;41010;53.252;5.786;2023-04-03T04:19:50;5.93;;;0.98;;
55114;SDS011;41010;53.252;5.786;2023-04-03T04:22:17;5.13;;;1.10;;
55114;SDS011;41010;53.252;5.786;2023-04-03T04:24:46;3.97;;;1.00;;
55114;SDS011;41010;53.252;5.786;2023-04-03T04:27:13;10.95;;;1.45;;
55114;SDS011;41010;53.252;5.786;2023-04-03T04:29:41;5.10;;;1.40;;
55114;SDS011;41010;53.252;5.786;2023-04-03T04:32:08;6.15;;;1.40;;
55114;SDS011;41010;53.252;5.786;2023-04-03T04:34:35;5.30;;;1.23;;
55114;SDS011;41010;53.252;5.786;2023-04-03T04:37:02;5.32;;;1.17;;
55114;SDS011;41010;53.252;5.786;2023-04-03T04:39:30;4.82;;;0.95;;
55114;SDS011;41010;53.252;5.786;2023-04-03T04:41:58;8.73;;;1.33;;
55114;SDS011;41010;53.252;5.786;2023-04-03T04:44:26;5.18;;;1.13;;
55114;SDS011;41010;53.252;5.786;2023-04-03T04:46:53;4.53;;;1.50;;
55114;SDS011;41010;53.252;5.786;2023-04-03T04:49:20;6.20;;;1.60;;
55114;SDS011;41010;53.252;5.786;2023-04-03T04:51:47;6.18;;;1.30;;
55114;SDS011;41010;53.252;5.786;2023-04-03T04:54:15;6.88;;;1.10;;
55114;SDS011;41010;53.252;5.786;2023-04-03T04:56:42;7.20;;;1.30;;
55114;SDS011;41010;53.252;5.786;2023-04-03T04:59:11;8.30;;;1.70;;
55114;SDS011;41010;53.252;5.786;2023-04-03T05:01:38;4.75;;;1.30;;
55114;SDS011;41010;53.252;5.786;2023-04-03T05:04:06;4.72;;;1.15;;
55114;SDS011;41010;53.252;5.786;2023-04-03T05:06:34;7.07;;;1.50;;
55114;SDS011;41010;53.252;5.786;2023-04-03T05:09:01;4.63;;;1.35;;
55114;SDS011;41010;53.252;5.786;2023-04-03T05:11:29;7.20;;;1.30;;
55114;SDS011;41010;53.252;5.786;2023-04-03T05:13:56;3.72;;;1.25;;
55114;SDS011;41010;53.252;5.786;2023-04-03T05:16:24;5.00;;;1.40;;
55114;SDS011;41010;53.252;5.786;2023-04-03T05:18:52;5.70;;;1.70;;
55114;SDS011;41010;53.252;5.786;2023-04-03T05:21:19;4.68;;;1.13;;
55114;SDS011;41010;53.252;5.786;2023-04-03T05:23:48;6.40;;;1.48;;
55114;SDS011;41010;53.252;5.786;2023-04-03T05:26:15;10.43;;;1.58;;
55114;SDS011;41010;53.252;5.786;2023-04-03T05:28:42;6.60;;;1.98;;
55114;SDS011;41010;53.252;5.786;2023-04-03T05:31:13;8.48;;;2.08;;
55114;SDS011;41010;53.252;5.786;2023-04-03T05:33:42;5.85;;;1.40;;
55114;SDS011;41010;53.252;5.786;2023-04-03T05:36:09;6.85;;;1.90;;
55114;SDS011;41010;53.252;5.786;2023-04-03T05:38:38;6.07;;;1.40;;
55114;SDS011;41010;53.252;5.786;2023-04-03T05:41:05;9.57;;;1.67;;
55114;SDS011;41010;53.252;5.786;2023-04-03T05:43:32;4.60;;;1.50;;
55114;SDS011;41010;53.252;5.786;2023-04-03T05:46:02;7.88;;;1.92;;
55114;SDS011;41010;53.252;5.786;2023-04-03T05:48:30;8.95;;;1.75;;
55114;SDS011;41010;53.252;5.786;2023-04-03T05:50:58;6.90;;;1.60;;
55114;SDS011;41010;53.252;5.786;2023-04-03T05:53:27;10.57;;;2.00;;
55114;SDS011;41010;53.252;5.786;2023-04-03T05:55:55;7.82;;;1.73;;
55114;SDS011;41010;53.252;5.786;2023-04-03T05:58:22;8.73;;;2.22;;
55114;SDS011;41010;53.252;5.786;2023-04-03T06:00:49;5.45;;;1.70;;
55114;SDS011;41010;53.252;5.786;2023-04-03T06:03:17;9.48;;;1.70;;
55114;SDS011;41010;53.252;5.786;2023-04-03T06:05:44;5.78;;;1.38;;
55114;SDS011;41010;53.252;5.786;2023-04-03T06:08:13;6.15;;;1.60;;
55114;SDS011;41010;53.252;5.786;2023-04-03T06:10:40;6.75;;;1.80;;
55114;SDS011;41010;53.252;5.786;2023-04-03T06:13:08;9.00;;;2.17;;
55114;SDS011;41010;53.252;5.786;2023-04-03T06:15:35;9.27;;;1.80;;
55114;SDS011;41010;53.252;5.786;2023-04-03T06:18:03;7.82;;;1.70;;
55114;SDS011;41010;53.252;5.786;2023-04-03T06:20:30;7.60;;;2.25;;
55114;SDS011;41010;53.252;5.786;2023-04-03T06:22:57;9.90;;;2.10;;
55114;SDS011;41010;53.252;5.786;2023-04-03T06:25:26;10.73;;;2.13;;
55114;SDS011;41010;53.252;5.786;2023-04-03T06:27:53;7.95;;;1.90;;
55114;SDS011;41010;53.252;5.786;2023-04-03T06:30:21;7.30;;;1.92;;
55114;SDS011;41010;53.252;5.786;2023-04-03T06:32:48;6.32;;;2.53;;
55114;SDS011;41010;53.252;5.786;2023-04-03T06:35:16;7.82;;;1.88;;
55114;SDS011;41010;53.252;5.786;2023-04-03T06:37:43;7.93;;;1.88;;
55114;SDS011;41010;53.252;5.786;2023-04-03T06:40:12;7.75;;;1.60;;
55114;SDS011;41010;53.252;5.786;2023-04-03T06:42:44;6.70;;;1.65;;
55114;SDS011;41010;53.252;5.786;2023-04-03T06:45:11;8.75;;;2.03;;
55114;SDS011;41010;53.252;5.786;2023-04-03T06:47:38;8.30;;;2.10;;
55114;SDS011;41010;53.252;5.786;2023-04-03T06:50:06;7.07;;;1.85;;
55114;SDS011;41010;53.252;5.786;2023-04-03T06:52:34;10.63;;;2.20;;
55114;SDS011;41010;53.252;5.786;2023-04-03T06:55:01;4.07;;;1.58;;
55114;SDS011;41010;53.252;5.786;2023-04-03T06:57:29;11.18;;;2.30;;
55114;SDS011;41010;53.252;5.786;2023-04-03T06:59:57;8.88;;;2.00;;
55114;SDS011;41010;53.252;5.786;2023-04-03T07:02:25;8.93;;;2.28;;
55114;SDS011;41010;53.252;5.786;2023-04-03T07:04:52;11.00;;;1.95;;
55114;SDS011;41010;53.252;5.786;2023-04-03T07:07:20;4.93;;;1.98;;
55114;SDS011;41010;53.252;5.786;2023-04-03T07:09:47;7.25;;;1.95;;
55114;SDS011;41010;53.252;5.786;2023-04-03T07:12:14;10.15;;;2.17;;
55114;SDS011;41010;53.252;5.786;2023-04-03T07:14:42;9.73;;;2.25;;
55114;SDS011;41010;53.252;5.786;2023-04-03T07:17:10;10.30;;;2.20;;
55114;SDS011;41010;53.252;5.786;2023-04-03T07:19:38;8.32;;;1.67;;
55114;SDS011;41010;53.252;5.786;2023-04-03T07:22:05;6.28;;;1.67;;
55114;SDS011;41010;53.252;5.786;2023-04-03T07:24:32;7.97;;;2.03;;
55114;SDS011;41010;53.252;5.786;2023-04-03T08:39:43;9.80;;;1.45;;
55114;SDS011;41010;53.252;5.786;2023-04-03T08:42:13;3.13;;;1.13;;
55114;SDS011;41010;53.252;5.786;2023-04-03T08:44:45;7.32;;;1.33;;
55114;SDS011;41010;53.252;5.786;2023-04-03T08:47:17;5.30;;;1.00;;
55114;SDS011;41010;53.252;5.786;2023-04-03T08:49:46;3.53;;;1.15;;
55114;SDS011;41010;53.252;5.786;2023-04-03T08:52:17;2.30;;;0.85;;
55114;SDS011;41010;53.252;5.786;2023-04-03T08:54:49;4.80;;;0.93;;
55114;SDS011;41010;53.252;5.786;2023-04-03T08:57:18;2.70;;;1.00;;
55114;SDS011;41010;53.252;5.786;2023-04-03T08:59:47;3.10;;;0.90;;
55114;SDS011;41010;53.252;5.786;2023-04-03T09:02:22;2.53;;;0.90;;
55114;SDS011;41010;53.252;5.786;2023-04-03T09:04:51;7.47;;;1.48;;
55114;SDS011;41010;53.252;5.786;2023-04-03T09:07:20;4.07;;;1.10;;
55114;SDS011;41010;53.252;5.786;2023-04-03T09:09:50;3.22;;;0.80;;
55114;SDS011;41010;53.252;5.786;2023-04-03T09:12:20;2.72;;;1.00;;
55114;SDS011;41010;53.252;5.786;2023-04-03T09:14:51;1.98;;;0.88;;
55114;SDS011;41010;53.252;5.786;2023-04-03T09:17:22;5.13;;;1.20;;
55114;SDS011;41010;53.252;5.786;2023-04-03T09:19:54;3.30;;;1.33;;
55114;SDS011;41010;53.252;5.786;2023-04-03T09:22:23;5.90;;;1.17;;
55114;SDS011;41010;53.252;5.786;2023-04-03T09:24:55;3.10;;;0.60;;
55114;SDS011;41010;53.252;5.786;2023-04-03T09:27:24;6.03;;;1.00;;
55114;SDS011;41010;53.252;5.786;2023-04-03T09:29:52;3.72;;;1.10;;
55114;SDS011;41010;53.252;5.786;2023-04-03T09:32:22;3.80;;;0.95;;
55114;SDS011;41010;53.252;5.786;2023-04-03T09:34:52;3.28;;;1.00;;
55114;SDS011;41010;53.252;5.786;2023-04-03T09:37:33;4.53;;;1.00;;
55114;SDS011;41010;53.252;5.786;2023-04-03T09:40:04;4.55;;;0.80;;
55114;SDS011;41010;53.252;5.786;2023-04-03T09:42:32;5.10;;;0.75;;
55114;SDS011;41010;53.252;5.786;2023-04-03T09:45:01;4.05;;;0.90;;
55114;SDS011;41010;53.252;5.786;2023-04-03T09:47:31;1.98;;;0.50;;
55114;SDS011;41010;53.252;5.786;2023-04-03T09:50:10;3.08;;;1.15;;
55114;SDS011;41010;53.252;5.786;2023-04-03T09:52:44;3.20;;;0.80;;
55114;SDS011;41010;53.252;5.786;2023-04-03T09:55:15;2.20;;;0.73;;
55114;SDS011;41010;53.252;5.786;2023-04-03T09:57:42;3.33;;;0.80;;
55114;SDS011;41010;53.252;5.786;2023-04-03T10:00:19;4.55;;;0.80;;
55114;SDS011;41010;53.252;5.786;2023-04-03T10:02:49;2.72;;;0.57;;
55114;SDS011;41010;53.252;5.786;2023-04-03T10:08:11;3.80;;;0.80;;
55114;SDS011;41010;53.252;5.786;2023-04-03T10:10:40;3.00;;;0.90;;
55114;SDS011;41010;53.252;5.786;2023-04-03T10:13:09;3.95;;;0.75;;
55114;SDS011;41010;53.252;5.786;2023-04-03T10:15:39;3.28;;;0.82;;
55114;SDS011;41010;53.252;5.786;2023-04-03T10:18:09;2.55;;;0.68;;
55114;SDS011;41010;53.252;5.786;2023-04-03T10:20:44;2.78;;;0.70;;
55114;SDS011;41010;53.252;5.786;2023-04-03T10:23:15;4.10;;;0.68;;
55114;SDS011;41010;53.252;5.786;2023-04-03T10:25:49;2.33;;;0.50;;
55114;SDS011;41010;53.252;5.786;2023-04-03T10:28:19;4.50;;;0.75;;
55114;SDS011;41010;53.252;5.786;2023-04-03T10:30:50;4.38;;;0.77;;
55114;SDS011;41010;53.252;5.786;2023-04-03T10:36:09;2.05;;;0.73;;
55114;SDS011;41010;53.252;5.786;2023-04-03T10:38:42;2.67;;;0.80;;
55114;SDS011;41010;53.252;5.786;2023-04-03T10:41:14;4.43;;;0.80;;
55114;SDS011;41010;53.252;5.786;2023-04-03T10:43:44;2.70;;;0.60;;
55114;SDS011;41010;53.252;5.786;2023-04-03T10:46:15;2.60;;;0.65;;
55114;SDS011;41010;53.252;5.786;2023-04-03T10:48:53;2.65;;;0.60;;
55114;SDS011;41010;53.252;5.786;2023-04-03T10:51:24;2.03;;;0.52;;
55114;SDS011;41010;53.252;5.786;2023-04-03T10:53:55;1.50;;;0.40;;
55114;SDS011;41010;53.252;5.786;2023-04-03T10:56:27;3.00;;;0.80;;
55114;SDS011;41010;53.252;5.786;2023-04-03T10:58:58;2.95;;;0.65;;
55114;SDS011;41010;53.252;5.786;2023-04-03T11:01:29;2.33;;;0.80;;
55114;SDS011;41010;53.252;5.786;2023-04-03T11:03:58;4.93;;;0.60;;
55114;SDS011;41010;53.252;5.786;2023-04-03T11:06:26;4.03;;;0.50;;
55114;SDS011;41010;53.252;5.786;2023-04-03T11:08:59;1.92;;;0.70;;
55114;SDS011;41010;53.252;5.786;2023-04-03T11:11:33;1.85;;;0.50;;
55114;SDS011;41010;53.252;5.786;2023-04-03T11:14:02;3.33;;;0.70;;
55114;SDS011;41010;53.252;5.786;2023-04-03T11:16:30;4.32;;;0.70;;
55114;SDS011;41010;53.252;5.786;2023-04-03T11:18:59;0.90;;;0.40;;
55114;SDS011;41010;53.252;5.786;2023-04-03T11:21:29;1.48;;;0.40;;
55114;SDS011;41010;53.252;5.786;2023-04-03T11:23:57;2.35;;;0.60;;
55114;SDS011;41010;53.252;5.786;2023-04-03T11:26:26;1.77;;;0.60;;
55114;SDS011;41010;53.252;5.786;2023-04-03T11:28:57;2.13;;;0.70;;
55114;SDS011;41010;53.252;5.786;2023-04-03T11:31:32;3.20;;;1.08;;
55114;SDS011;41010;53.252;5.786;2023-04-03T11:34:04;1.98;;;0.73;;
55114;SDS011;41010;53.252;5.786;2023-04-03T11:36:33;2.33;;;0.60;;
55114;SDS011;41010;53.252;5.786;2023-04-03T11:39:07;4.90;;;0.82;;
55114;SDS011;41010;53.252;5.786;2023-04-03T11:41:37;1.30;;;0.57;;
55114;SDS011;41010;53.252;5.786;2023-04-03T11:44:13;0.95;;;0.50;;
55114;SDS011;41010;53.252;5.786;2023-04-03T11:46:52;1.83;;;0.70;;
55114;SDS011;41010;53.252;5.786;2023-04-03T11:52:19;2.10;;;0.90;;
55114;SDS011;41010;53.252;5.786;2023-04-03T12:00:50;2.25;;;0.80;;
55114;SDS011;41010;53.252;5.786;2023-04-03T12:09:22;3.25;;;1.00;;
55114;SDS011;41010;53.252;5.786;2023-04-03T12:11:50;1.92;;;0.80;;
55114;SDS011;41010;53.252;5.786;2023-04-03T12:14:18;3.47;;;0.65;;
55114;SDS011;41010;53.252;5.786;2023-04-03T12:16:48;1.73;;;0.75;;
55114;SDS011;41010;53.252;5.786;2023-04-03T12:19:30;1.25;;;0.68;;
55114;SDS011;41010;53.252;5.786;2023-04-03T12:22:05;3.13;;;0.80;;
55114;SDS011;41010;53.252;5.786;2023-04-03T12:24:34;4.40;;;0.90;;
55114;SDS011;41010;53.252;5.786;2023-04-03T12:27:21;5.05;;;1.30;;
55114;SDS011;41010;53.252;5.786;2023-04-03T12:29:51;6.50;;;1.20;;
55114;SDS011;41010;53.252;5.786;2023-04-03T12:32:24;3.10;;;0.88;;
55114;SDS011;41010;53.252;5.786;2023-04-03T12:34:56;3.13;;;0.95;;
55114;SDS011;41010;53.252;5.786;2023-04-03T12:37:34;3.55;;;1.50;;
55114;SDS011;41010;53.252;5.786;2023-04-03T12:40:07;2.63;;;1.20;;
55114;SDS011;41010;53.252;5.786;2023-04-03T12:42:41;2.97;;;1.20;;
55114;SDS011;41010;53.252;5.786;2023-04-03T12:45:13;3.55;;;1.02;;
55114;SDS011;41010;53.252;5.786;2023-04-03T12:47:44;3.88;;;1.38;;
55114;SDS011;41010;53.252;5.786;2023-04-03T12:50:19;3.50;;;1.10;;
55114;SDS011;41010;53.252;5.786;2023-04-03T12:52:50;3.50;;;1.02;;
55114;SDS011;41010;53.252;5.786;2023-04-03T12:55:19;2.67;;;1.20;;
55114;SDS011;41010;53.252;5.786;2023-04-03T12:57:47;2.55;;;1.02;;
55114;SDS011;41010;53.252;5.786;2023-04-03T13:00:21;2.35;;;0.98;;
55114;SDS011;41010;53.252;5.786;2023-04-03T13:02:50;2.38;;;1.20;;
55114;SDS011;41010;53.252;5.786;2023-04-03T13:05:18;2.20;;;0.90;;
55114;SDS011;41010;53.252;5.786;2023-04-03T13:07:48;3.60;;;1.17;;
55114;SDS011;41010;53.252;5.786;2023-04-03T13:10:16;4.95;;;1.20;;
55114;SDS011;41010;53.252;5.786;2023-04-03T13:12:48;2.88;;;1.05;;
55114;SDS011;41010;53.252;5.786;2023-04-03T13:15:16;2.28;;;0.90;;
55114;SDS011;41010;53.252;5.786;2023-04-03T13:17:44;2.38;;;0.90;;
55114;SDS011;41010;53.252;5.786;2023-04-03T13:20:17;1.40;;;0.90;;
55114;SDS011;41010;53.252;5.786;2023-04-03T13:22:48;2.97;;;1.00;;
55114;SDS011;41010;53.252;5.786;2023-04-03T13:25:16;3.63;;;1.63;;
55114;SDS011;41010;53.252;5.786;2023-04-03T13:27:44;3.70;;;1.20;;
55114;SDS011;41010;53.252;5.786;2023-04-03T13:30:18;2.67;;;1.00;;
55114;SDS011;41010;53.252;5.786;2023-04-03T13:32:46;3.67;;;1.25;;
55114;SDS011;41010;53.252;5.786;2023-04-03T13:35:29;3.28;;;1.40;;
55114;SDS011;41010;53.252;5.786;2023-04-03T13:37:57;3.65;;;1.50;;
55114;SDS011;41010;53.252;5.786;2023-04-03T13:40:26;2.55;;;1.35;;
55114;SDS011;41010;53.252;5.786;2023-04-03T13:43:00;2.80;;;1.20;;
55114;SDS011;41010;53.252;5.786;2023-04-03T13:45:28;3.75;;;1.20;;
55114;SDS011;41010;53.252;5.786;2023-04-03T13:48:07;4.85;;;1.30;;
55114;SDS011;41010;53.252;5.786;2023-04-03T13:50:48;2.03;;;1.20;;
55114;SDS011;41010;53.252;5.786;2023-04-03T13:53:17;3.72;;;1.20;;
55114;SDS011;41010;53.252;5.786;2023-04-03T13:55:52;2.45;;;1.17;;
55114;SDS011;41010;53.252;5.786;2023-04-03T13:58:22;2.63;;;1.20;;
55114;SDS011;41010;53.252;5.786;2023-04-03T14:00:51;3.83;;;1.40;;
55114;SDS011;41010;53.252;5.786;2023-04-03T14:03:20;2.38;;;1.02;;
55114;SDS011;41010;53.252;5.786;2023-04-03T14:05:49;3.65;;;1.10;;
55114;SDS011;41010;53.252;5.786;2023-04-03T14:08:17;2.70;;;1.15;;
55114;SDS011;41010;53.252;5.786;2023-04-03T14:10:44;4.00;;;1.20;;
55114;SDS011;41010;53.252;5.786;2023-04-03T14:13:12;2.83;;;1.10;;
55114;SDS011;41010;53.252;5.786;2023-04-03T14:15:40;2.83;;;1.27;;
55114;SDS011;41010;53.252;5.786;2023-04-03T14:18:10;2.53;;;1.38;;
55114;SDS011;41010;53.252;5.786;2023-04-03T14:20:37;2.70;;;1.10;;
55114;SDS011;41010;53.252;5.786;2023-04-03T14:23:06;3.72;;;1.15;;
55114;SDS011;41010;53.252;5.786;2023-04-03T14:25:33;2.17;;;1.17;;
55114;SDS011;41010;53.252;5.786;2023-04-03T14:28:01;2.45;;;1.35;;
55114;SDS011;41010;53.252;5.786;2023-04-03T14:30:39;3.17;;;1.30;;
55114;SDS011;41010;53.252;5.786;2023-04-03T14:33:06;3.83;;;1.40;;
55114;SDS011;41010;53.252;5.786;2023-04-03T14:35:34;10.00;;;1.35;;
55114;SDS011;41010;53.252;5.786;2023-04-03T14:38:01;5.72;;;1.38;;
55114;SDS011;41010;53.252;5.786;2023-04-03T14:40:30;3.65;;;1.23;;
55114;SDS011;41010;53.252;5.786;2023-04-03T14:42:57;3.08;;;1.60;;
55114;SDS011;41010;53.252;5.786;2023-04-03T14:45:24;2.70;;;1.40;;
55114;SDS011;41010;53.252;5.786;2023-04-03T14:47:52;3.38;;;1.63;;
55114;SDS011;41010;53.252;5.786;2023-04-03T14:50:22;3.40;;;1.60;;
55114;SDS011;41010;53.252;5.786;2023-04-03T14:52:50;3.22;;;1.48;;
55114;SDS011;41010;53.252;5.786;2023-04-03T14:55:19;3.65;;;1.60;;
55114;SDS011;41010;53.252;5.786;2023-04-03T14:57:48;3.08;;;1.67;;
55114;SDS011;41010;53.252;5.786;2023-04-03T15:00:17;3.35;;;1.75;;
55114;SDS011;41010;53.252;5.786;2023-04-03T15:02:45;3.40;;;1.60;;
55114;SDS011;41010;53.252;5.786;2023-04-03T15:05:13;3.22;;;1.90;;
55114;SDS011;41010;53.252;5.786;2023-04-03T15:07:41;3.58;;;1.65;;
55114;SDS011;41010;53.252;5.786;2023-04-03T15:10:14;3.40;;;1.60;;
55114;SDS011;41010;53.252;5.786;2023-04-03T15:12:42;5.10;;;1.80;;
55114;SDS011;41010;53.252;5.786;2023-04-03T15:15:11;4.78;;;1.70;;
55114;SDS011;41010;53.252;5.786;2023-04-03T15:17:39;4.28;;;1.60;;
55114;SDS011;41010;53.252;5.786;2023-04-03T15:20:10;2.80;;;1.48;;
55114;SDS011;41010;53.252;5.786;2023-04-03T15:22:38;3.45;;;1.80;;
55114;SDS011;41010;53.252;5.786;2023-04-03T15:25:06;3.75;;;1.67;;
55114;SDS011;41010;53.252;5.786;2023-04-03T15:27:33;2.95;;;1.30;;
55114;SDS011;41010;53.252;5.786;2023-04-03T15:30:00;4.50;;;1.75;;
55114;SDS011;41010;53.252;5.786;2023-04-03T15:32:29;4.15;;;1.92;;
55114;SDS011;41010;53.252;5.786;2023-04-03T15:34:56;2.97;;;1.30;;
55114;SDS011;41010;53.252;5.786;2023-04-03T15:37:24;3.35;;;1.70;;
55114;SDS011;41010;53.252;5.786;2023-04-03T15:39:51;2.95;;;1.52;;
55114;SDS011;41010;53.252;5.786;2023-04-03T15:42:19;3.05;;;1.35;;
55114;SDS011;41010;53.252;5.786;2023-04-03T15:44:46;3.40;;;1.50;;
55114;SDS011;41010;53.252;5.786;2023-04-03T15:47:13;3.72;;;1.58;;
55114;SDS011;41010;53.252;5.786;2023-04-03T15:49:42;5.18;;;1.63;;
55114;SDS011;41010;53.252;5.786;2023-04-03T15:52:10;3.28;;;1.50;;
55114;SDS011;41010;53.252;5.786;2023-04-03T15:54:37;3.70;;;1.55;;
55114;SDS011;41010;53.252;5.786;2023-04-03T15:57:04;2.22;;;1.13;;
55114;SDS011;41010;53.252;5.786;2023-04-03T15:59:31;2.15;;;1.20;;
55114;SDS011;41010;53.252;5.786;2023-04-03T16:01:59;2.03;;;1.40;;
55114;SDS011;41010;53.252;5.786;2023-04-03T16:04:26;4.55;;;1.40;;
55114;SDS011;41010;53.252;5.786;2023-04-03T16:06:55;2.70;;;1.30;;
55114;SDS011;41010;53.252;5.786;2023-04-03T16:09:23;2.30;;;1.30;;
55114;SDS011;41010;53.252;5.786;2023-04-03T16:11:50;2.80;;;1.38;;
55114;SDS011;41010;53.252;5.786;2023-04-03T16:14:17;2.70;;;1.17;;
55114;SDS011;41010;53.252;5.786;2023-04-03T16:16:44;2.03;;;1.20;;
55114;SDS011;41010;53.252;5.786;2023-04-03T16:19:12;2.35;;;1.20;;
55114;SDS011;41010;53.252;5.786;2023-04-03T16:21:40;2.95;;;1.27;;
55114;SDS011;41010;53.252;5.786;2023-04-03T16:24:08;3.05;;;1.20;;
55114;SDS011;41010;53.252;5.786;2023-04-03T16:26:36;5.43;;;1.38;;
55114;SDS011;41010;53.252;5.786;2023-04-03T16:29:03;1.92;;;1.10;;
55114;SDS011;41010;53.252;5.786;2023-04-03T16:31:30;6.03;;;1.48;;
55114;SDS011;41010;53.252;5.786;2023-04-03T16:33:58;2.75;;;1.10;;